Time;durP1;ratioP1;P1;durP2;ratioP2;P2;SDS_P1;SDS_P2;PMS_P1;PMS_P2;Temp;Humidity;BMP_temperature;BMP_pressure;BME280_temperature;BME280_humidity;BME280_pressure;Samples;Min_cycle;Max_cycle;Signal;HPM_P1;HPM_P2
2022/09/01 00:02:14;;;;;;;1.70;1.60;;;19.50;99.90;;;;;;5046311;28;20241;-75
2022/09/01 00:04:46;;;;;;;1.42;1.33;;;19.50;99.90;;;;;;5042336;28;20720;-75
2022/09/01 00:07:14;;;;;;;1.35;1.25;;;19.50;99.90;;;;;;5065220;28;20602;-75
2022/09/01 00:09:42;;;;;;;1.55;1.27;;;19.50;99.90;;;;;;5066143;28;20214;-75
2022/09/01 00:12:10;;;;;;;1.60;1.50;;;19.40;99.90;;;;;;5068686;28;20225;-75
2022/09/01 00:14:40;;;;;;;1.50;1.40;;;19.40;99.90;;;;;;5061689;28;20219;-75
2022/09/01 00:17:10;;;;;;;1.20;1.10;;;19.40;99.90;;;;;;5065074;28;20683;-75
2022/09/01 00:19:38;;;;;;;1.60;1.50;;;19.50;99.90;;;;;;5060394;28;20319;-75
2022/09/01 00:22:07;;;;;;;1.30;1.20;;;19.50;99.90;;;;;;5063361;28;20222;-75
2022/09/01 00:24:35;;;;;;;1.27;1.20;;;19.40;99.90;;;;;;5063938;28;20254;-75
2022/09/01 00:27:02;;;;;;;1.92;1.23;;;19.40;99.90;;;;;;5069337;28;20691;-75
2022/09/01 00:29:29;;;;;;;1.50;1.40;;;19.40;99.90;;;;;;5067310;28;20217;-75
2022/09/01 00:31:56;;;;;;;1.35;1.27;;;19.30;99.90;;;;;;5064287;28;20309;-75
2022/09/01 00:34:23;;;;;;;1.27;1.27;;;19.30;99.90;;;;;;5064529;28;20203;-75
2022/09/01 00:36:51;;;;;;;1.50;1.40;;;19.20;99.90;;;;;;5067130;28;20244;-73
2022/09/01 00:39:19;;;;;;;1.00;1.00;;;19.20;99.90;;;;;;5065002;28;20219;-75
2022/09/01 00:41:49;;;;;;;1.83;1.15;;;19.10;99.90;;;;;;5059226;28;20218;-75
2022/09/01 00:44:22;;;;;;;2.83;1.30;;;19.10;99.90;;;;;;5059962;28;20572;-75
2022/09/01 00:46:50;;;;;;;1.10;1.10;;;19.10;99.90;;;;;;5066149;28;20198;-74
2022/09/01 00:49:22;;;;;;;1.40;1.27;;;19.10;99.90;;;;;;5064330;28;20199;-75
2022/09/01 00:51:53;;;;;;;1.10;1.10;;;19.10;99.90;;;;;;5066962;28;20591;-75
2022/09/01 00:54:24;;;;;;;1.45;1.35;;;19.10;99.90;;;;;;5072267;23;20219;-72
2022/09/01 00:56:52;;;;;;;1.52;1.42;;;19.10;99.90;;;;;;5059296;28;20624;-71
2022/09/01 00:59:22;;;;;;;1.65;1.00;;;19.10;99.90;;;;;;5067821;28;20218;-71
2022/09/01 01:01:49;;;;;;;1.40;1.30;;;19.10;99.90;;;;;;5066747;28;20198;-71
2022/09/01 01:04:16;;;;;;;1.67;1.50;;;19.10;99.90;;;;;;5054427;28;20499;-71
2022/09/01 01:06:48;;;;;;;1.02;1.02;;;19.00;99.90;;;;;;5045209;28;20195;-74
2022/09/01 01:09:16;;;;;;;1.27;1.17;;;19.00;99.90;;;;;;5047316;28;20191;-72
2022/09/01 01:11:46;;;;;;;2.58;1.10;;;18.90;99.90;;;;;;5049453;28;20198;-72
2022/09/01 01:14:16;;;;;;;1.30;1.20;;;18.90;99.90;;;;;;5049355;28;20242;-71
2022/09/01 01:16:54;;;;;;;0.95;0.90;;;18.90;99.90;;;;;;5050239;28;20205;-72
2022/09/01 01:25:07;;;;;;;1.00;1.00;;;18.60;99.90;;;;;;5043097;28;20764;-71
2022/09/01 01:27:37;;;;;;;0.88;0.88;;;18.50;99.90;;;;;;5046813;28;20199;-72
2022/09/01 01:30:08;;;;;;;1.08;1.08;;;18.50;99.90;;;;;;5048132;28;20277;-71
2022/09/01 01:32:36;;;;;;;1.27;1.23;;;18.50;99.90;;;;;;5043822;28;20745;-72
2022/09/01 01:35:04;;;;;;;0.80;0.80;;;18.50;99.90;;;;;;5047914;28;20270;-72
2022/09/01 01:37:34;;;;;;;1.00;1.00;;;18.40;99.90;;;;;;5048573;28;20202;-72
2022/09/01 01:40:01;;;;;;;1.33;1.23;;;18.40;99.90;;;;;;5046632;28;20222;-72
2022/09/01 01:42:30;;;;;;;1.33;1.23;;;18.40;99.90;;;;;;5049246;28;20203;-71
2022/09/01 01:44:57;;;;;;;1.00;1.00;;;18.40;99.90;;;;;;5048535;28;20233;-72
2022/09/01 01:47:24;;;;;;;1.17;1.00;;;18.30;99.90;;;;;;5049049;28;20202;-71
2022/09/01 01:49:53;;;;;;;1.00;1.00;;;18.20;99.90;;;;;;5047438;28;20310;-72
2022/09/01 01:52:20;;;;;;;0.93;0.93;;;18.20;99.90;;;;;;5048709;28;20221;-72
2022/09/01 01:54:48;;;;;;;1.23;1.23;;;18.10;99.90;;;;;;5048001;28;20650;-72
2022/09/01 01:57:16;;;;;;;1.10;1.10;;;18.10;99.90;;;;;;5048199;28;20233;-72
2022/09/01 01:59:45;;;;;;;1.23;1.23;;;18.20;99.90;;;;;;5047299;28;20237;-72
2022/09/01 02:02:13;;;;;;;1.00;1.00;;;18.10;99.90;;;;;;5045956;28;20314;-72
2022/09/01 02:04:41;;;;;;;0.90;0.90;;;18.10;99.90;;;;;;5047822;28;20607;-72
2022/09/01 02:07:11;;;;;;;3.92;0.90;;;18.10;99.90;;;;;;5048473;28;20201;-72
2022/09/01 02:09:39;;;;;;;1.00;1.00;;;18.10;99.90;;;;;;5048780;28;20218;-72
2022/09/01 02:12:08;;;;;;;1.08;1.08;;;18.00;99.90;;;;;;5048137;28;20199;-72
2022/09/01 02:14:35;;;;;;;0.90;0.90;;;18.00;99.90;;;;;;5046785;28;20226;-72
2022/09/01 02:17:05;;;;;;;1.25;0.90;;;18.00;99.90;;;;;;5046984;28;20195;-72
2022/09/01 02:19:39;;;;;;;1.50;1.05;;;18.00;99.90;;;;;;5042105;28;20322;-72
2022/09/01 02:22:09;;;;;;;1.00;1.00;;;17.90;99.90;;;;;;5051014;28;20756;-72
2022/09/01 02:24:37;;;;;;;1.10;1.10;;;17.80;99.90;;;;;;5050659;28;20226;-72
2022/09/01 02:27:05;;;;;;;0.80;0.80;;;17.70;99.90;;;;;;5050904;28;20202;-72
2022/09/01 02:29:32;;;;;;;1.10;1.10;;;17.60;99.90;;;;;;5049688;28;20218;-71
2022/09/01 02:31:59;;;;;;;1.17;1.08;;;17.60;99.90;;;;;;5051666;28;20205;-74
2022/09/01 02:34:30;;;;;;;0.88;0.88;;;17.60;99.90;;;;;;5052521;28;20214;-72
2022/09/01 02:36:58;;;;;;;0.90;0.90;;;17.60;99.90;;;;;;5055339;28;20227;-72
2022/09/01 02:39:28;;;;;;;1.08;1.00;;;17.60;99.90;;;;;;5052418;28;20226;-71
2022/09/01 02:41:56;;;;;;;1.02;1.02;;;17.70;99.90;;;;;;5053738;28;20206;-71
2022/09/01 02:44:23;;;;;;;0.93;0.93;;;17.70;99.90;;;;;;5049729;28;20222;-72
2022/09/01 02:46:51;;;;;;;0.90;0.90;;;17.70;99.90;;;;;;5049893;28;20281;-71
2022/09/01 02:49:20;;;;;;;1.00;1.00;;;17.70;99.90;;;;;;5051273;28;20199;-72
2022/09/01 02:51:52;;;;;;;0.90;0.90;;;17.70;99.90;;;;;;5051921;28;20195;-72
2022/09/01 02:54:22;;;;;;;0.90;0.90;;;17.70;99.90;;;;;;5051800;28;20237;-72
2022/09/01 02:56:53;;;;;;;0.82;0.82;;;17.70;99.90;;;;;;5042949;28;20203;-72
2022/09/01 02:59:22;;;;;;;1.10;1.10;;;17.70;99.90;;;;;;5050244;28;20211;-72
2022/09/01 03:01:50;;;;;;;1.70;1.10;;;17.70;99.90;;;;;;5049465;28;20205;-72
2022/09/01 03:04:17;;;;;;;0.80;0.80;;;17.70;99.90;;;;;;5050886;28;20225;-72
2022/09/01 03:06:45;;;;;;;1.02;1.02;;;17.70;99.90;;;;;;5052259;28;20206;-71
2022/09/01 03:09:17;;;;;;;0.90;0.90;;;17.70;99.90;;;;;;5051264;28;20221;-72
2022/09/01 03:11:45;;;;;;;1.55;1.45;;;17.80;99.90;;;;;;5050942;28;20199;-71
2022/09/01 03:14:13;;;;;;;1.08;1.08;;;17.70;99.90;;;;;;5052555;28;20215;-72
2022/09/01 03:16:40;;;;;;;0.90;0.90;;;17.70;99.90;;;;;;5049014;28;20199;-71
2022/09/01 03:19:10;;;;;;;0.90;0.90;;;17.70;99.90;;;;;;5050315;28;20227;-71
2022/09/01 03:21:39;;;;;;;1.20;1.17;;;17.70;99.90;;;;;;5052020;28;20245;-71
2022/09/01 03:24:07;;;;;;;1.00;1.00;;;17.70;99.90;;;;;;5049447;28;20226;-72
2022/09/01 03:26:37;;;;;;;0.82;0.82;;;17.60;99.90;;;;;;5049457;28;20219;-72
2022/09/01 03:29:05;;;;;;;0.80;0.80;;;17.60;99.90;;;;;;5050818;28;20209;-72
2022/09/01 03:31:32;;;;;;;0.90;0.90;;;17.60;99.90;;;;;;5045790;28;20719;-71
2022/09/01 03:34:00;;;;;;;1.10;1.10;;;17.60;99.90;;;;;;5048842;28;20226;-72
2022/09/01 03:36:28;;;;;;;1.00;1.00;;;17.60;99.90;;;;;;5047748;28;20442;-71
2022/09/01 03:38:55;;;;;;;0.95;0.95;;;17.50;99.90;;;;;;5049642;28;20933;-71
2022/09/01 03:41:27;;;;;;;0.85;0.85;;;17.50;99.90;;;;;;5046982;28;20631;-71
2022/09/01 03:43:56;;;;;;;0.80;0.80;;;17.40;99.90;;;;;;5053400;28;20310;-71
2022/09/01 03:46:25;;;;;;;0.90;0.90;;;17.40;99.90;;;;;;5047979;28;20219;-71
2022/09/01 03:48:57;;;;;;;1.00;1.00;;;17.40;99.90;;;;;;5051945;28;20197;-71
2022/09/01 03:51:25;;;;;;;0.93;0.93;;;17.30;99.90;;;;;;5046457;28;20238;-71
2022/09/01 03:53:54;;;;;;;1.00;1.00;;;17.30;99.90;;;;;;5052076;28;20735;-71
2022/09/01 03:56:23;;;;;;;1.00;1.00;;;17.30;99.90;;;;;;5048800;28;20238;-71
2022/09/01 03:58:51;;;;;;;0.90;0.90;;;17.20;99.90;;;;;;5047058;28;20222;-72
2022/09/01 04:01:20;;;;;;;0.90;0.90;;;17.30;99.90;;;;;;5050543;28;20219;-72
2022/09/01 04:03:47;;;;;;;1.35;1.10;;;17.30;99.90;;;;;;5050178;28;20426;-71
2022/09/01 04:06:22;;;;;;;0.90;0.90;;;17.30;99.90;;;;;;5051417;28;20220;-72
2022/09/01 04:08:51;;;;;;;1.25;1.10;;;17.30;99.90;;;;;;5049311;28;20249;-71
2022/09/01 04:11:22;;;;;;;1.13;1.00;;;17.20;99.90;;;;;;5049487;28;20711;-72
2022/09/01 04:13:52;;;;;;;1.08;1.08;;;17.30;99.90;;;;;;5051366;28;20269;-72
2022/09/01 04:19:14;;;;;;;1.08;1.08;;;17.20;99.90;;;;;;5049483;28;20340;-71
2022/09/01 04:21:43;;;;;;;1.00;1.00;;;17.20;99.90;;;;;;5050168;28;20309;-72
2022/09/01 04:24:12;;;;;;;1.20;1.10;;;17.10;99.90;;;;;;5050321;28;20755;-71
2022/09/01 04:26:39;;;;;;;1.30;1.20;;;17.10;99.90;;;;;;5049938;28;20249;-71
2022/09/01 04:29:08;;;;;;;1.10;1.10;;;17.10;99.90;;;;;;5050859;28;21347;-72
2022/09/01 04:31:38;;;;;;;1.00;1.00;;;17.10;99.90;;;;;;5049397;28;20214;-72
2022/09/01 04:34:12;;;;;;;1.00;1.00;;;17.20;99.90;;;;;;5049883;28;20301;-72
2022/09/01 04:36:40;;;;;;;0.85;0.85;;;17.20;99.90;;;;;;5048762;28;20276;-72
2022/09/01 04:39:09;;;;;;;1.67;1.10;;;17.10;99.90;;;;;;5048533;28;20720;-72
2022/09/01 04:41:38;;;;;;;0.95;0.95;;;17.10;99.90;;;;;;5047893;28;20218;-72
2022/09/01 04:44:07;;;;;;;0.80;0.80;;;17.10;99.90;;;;;;5049108;28;20229;-72
2022/09/01 04:46:41;;;;;;;1.42;0.90;;;17.10;99.90;;;;;;5045071;28;20223;-73
2022/09/01 04:49:09;;;;;;;1.20;1.20;;;17.20;99.90;;;;;;5048407;28;20199;-72
2022/09/01 04:51:39;;;;;;;1.35;1.00;;;17.20;99.90;;;;;;5044661;28;20215;-71
2022/09/01 04:54:11;;;;;;;1.10;1.10;;;17.20;99.90;;;;;;5045640;28;20653;-72
2022/09/01 04:56:39;;;;;;;1.40;1.30;;;17.20;99.90;;;;;;5047016;28;20720;-72
2022/09/01 04:59:07;;;;;;;1.10;1.00;;;17.20;99.90;;;;;;5047205;28;20226;-72
2022/09/01 05:01:42;;;;;;;1.00;1.00;;;17.20;99.90;;;;;;5051217;28;20625;-72
2022/09/01 05:04:11;;;;;;;1.38;1.17;;;17.20;99.90;;;;;;5050784;28;20225;-72
2022/09/01 05:06:41;;;;;;;1.10;1.10;;;17.30;99.90;;;;;;5049479;28;20253;-72
2022/09/01 05:09:09;;;;;;;1.10;1.10;;;17.40;99.90;;;;;;5047670;28;20656;-72
2022/09/01 05:11:38;;;;;;;1.13;1.02;;;17.40;99.90;;;;;;5042755;28;20203;-71
2022/09/01 05:14:06;;;;;;;1.10;1.10;;;17.50;99.90;;;;;;5049844;28;20302;-72
2022/09/01 05:16:34;;;;;;;1.20;1.20;;;17.50;99.90;;;;;;5047307;28;20218;-71
2022/09/01 05:19:02;;;;;;;1.00;1.00;;;17.50;99.90;;;;;;5048268;28;20301;-72
2022/09/01 05:21:31;;;;;;;1.20;1.20;;;17.70;99.90;;;;;;5047484;28;20584;-72
2022/09/01 05:24:00;;;;;;;1.27;1.23;;;17.80;99.90;;;;;;5048226;28;20215;-71
2022/09/01 05:26:30;;;;;;;1.10;1.10;;;18.00;99.90;;;;;;5049881;28;20223;-72
2022/09/01 05:29:00;;;;;;;2.45;1.05;;;18.10;99.90;;;;;;5046133;28;20195;-72
2022/09/01 05:31:36;;;;;;;1.02;1.02;;;18.10;99.90;;;;;;5050432;28;20219;-72
2022/09/01 05:34:08;;;;;;;0.90;0.90;;;18.10;99.90;;;;;;5048840;28;20219;-72
2022/09/01 05:36:38;;;;;;;1.00;1.00;;;18.20;99.90;;;;;;5046305;28;20211;-72
2022/09/01 05:39:09;;;;;;;1.15;1.05;;;18.30;99.90;;;;;;5050205;28;20222;-71
2022/09/01 05:41:36;;;;;;;1.27;1.20;;;18.40;99.90;;;;;;5047832;28;20773;-71
2022/09/01 05:44:06;;;;;;;1.50;1.00;;;18.50;99.90;;;;;;5047864;28;20218;-73
2022/09/01 05:46:35;;;;;;;1.33;1.23;;;18.90;99.90;;;;;;5046437;28;20657;-72
2022/09/01 05:49:03;;;;;;;1.33;1.27;;;19.20;99.90;;;;;;5045600;28;20187;-71
2022/09/01 05:51:33;;;;;;;2.38;1.30;;;19.40;99.90;;;;;;5045185;28;20210;-72
2022/09/01 05:54:03;;;;;;;1.33;1.23;;;19.60;99.90;;;;;;5043505;28;20697;-72
2022/09/01 05:56:31;;;;;;;1.40;1.30;;;19.80;99.90;;;;;;5044038;28;20273;-72
2022/09/01 05:59:01;;;;;;;2.10;1.23;;;19.70;99.90;;;;;;5047101;28;20199;-70
2022/09/01 06:01:32;;;;;;;1.10;1.10;;;19.80;99.90;;;;;;5049669;28;20215;-72
2022/09/01 06:04:02;;;;;;;1.10;1.10;;;20.00;99.90;;;;;;5050941;28;20250;-72
2022/09/01 06:06:39;;;;;;;1.40;1.30;;;20.30;99.90;;;;;;5042227;28;20226;-72
2022/09/01 06:09:10;;;;;;;1.30;1.20;;;20.20;99.90;;;;;;5046503;28;20200;-73
2022/09/01 06:11:37;;;;;;;1.08;1.08;;;20.00;99.90;;;;;;5045700;28;20550;-72
2022/09/01 06:14:05;;;;;;;1.40;1.30;;;19.90;99.90;;;;;;5047557;28;20215;-72
2022/09/01 06:16:34;;;;;;;1.00;1.00;;;19.80;99.90;;;;;;5048022;28;20600;-72
2022/09/01 06:19:02;;;;;;;1.10;1.10;;;19.90;99.90;;;;;;5042572;28;20934;-70
2022/09/01 06:21:30;;;;;;;3.15;1.23;;;19.80;99.90;;;;;;5043343;28;20249;-71
2022/09/01 06:23:58;;;;;;;1.48;1.38;;;19.70;99.90;;;;;;5049030;28;20302;-72
2022/09/01 06:26:29;;;;;;;1.30;1.20;;;19.90;99.90;;;;;;5047982;28;20222;-73
2022/09/01 06:28:58;;;;;;;1.60;1.50;;;20.20;99.90;;;;;;5047964;28;20206;-69
2022/09/01 06:31:28;;;;;;;1.65;1.38;;;20.30;99.90;;;;;;5047768;28;20235;-73
2022/09/01 06:33:56;;;;;;;1.20;1.20;;;20.40;99.90;;;;;;5045623;28;20215;-73
2022/09/01 06:36:24;;;;;;;1.75;1.33;;;20.50;99.90;;;;;;5043653;28;20656;-73
2022/09/01 06:38:53;;;;;;;1.48;1.33;;;20.70;99.90;;;;;;5043830;28;20227;-73
2022/09/01 06:41:22;;;;;;;1.67;1.52;;;20.90;99.90;;;;;;5023516;28;20301;-75
2022/09/01 06:43:52;;;;;;;1.30;1.20;;;20.70;99.90;;;;;;5038581;28;20222;-72
2022/09/01 06:46:20;;;;;;;1.48;1.38;;;20.70;99.90;;;;;;5039337;28;20219;-72
2022/09/01 06:48:48;;;;;;;2.67;1.48;;;20.70;99.90;;;;;;5039471;28;20210;-72
2022/09/01 06:51:16;;;;;;;1.52;1.27;;;20.70;99.90;;;;;;5035726;28;20238;-72
2022/09/01 06:53:45;;;;;;;1.58;1.38;;;20.60;99.90;;;;;;5031882;28;20285;-72
2022/09/01 06:58:47;;;;;;;1.20;1.20;;;20.50;99.90;;;;;;5047021;28;20206;-75
2022/09/01 07:01:18;;;;;;;2.72;1.35;;;20.50;99.90;;;;;;5059947;28;20327;-74
2022/09/01 07:03:49;;;;;;;2.70;1.30;;;20.80;99.90;;;;;;5060387;28;20899;-77
2022/09/01 07:06:18;;;;;;;1.58;1.27;;;21.20;99.90;;;;;;5066141;28;20245;-76
2022/09/01 07:08:48;;;;;;;1.27;1.17;;;21.70;99.90;;;;;;5046394;28;20194;-75
2022/09/01 07:11:22;;;;;;;0.90;0.90;;;21.90;99.90;;;;;;5048155;28;20229;-77
2022/09/01 07:13:53;;;;;;;2.30;1.17;;;22.10;99.90;;;;;;5047985;28;20407;-77
2022/09/01 07:16:24;;;;;;;1.30;1.20;;;22.10;99.90;;;;;;5048148;28;20712;-77
2022/09/01 07:18:54;;;;;;;1.15;1.15;;;22.00;99.90;;;;;;5048832;28;20198;-77
2022/09/01 07:21:22;;;;;;;1.23;1.02;;;22.00;99.90;;;;;;5041779;28;20432;-76
2022/09/01 07:23:50;;;;;;;1.85;1.20;;;21.90;99.90;;;;;;5045692;28;20202;-77
2022/09/01 07:26:18;;;;;;;1.30;1.20;;;21.70;99.90;;;;;;5050754;28;20819;-78
2022/09/01 07:28:46;;;;;;;2.28;1.40;;;21.50;99.90;;;;;;5042842;28;20268;-77
2022/09/01 07:31:20;;;;;;;8.27;2.88;;;21.50;99.90;;;;;;5041103;28;20735;-77
2022/09/01 07:33:49;;;;;;;3.33;1.52;;;21.50;99.90;;;;;;5044351;28;20190;-76
2022/09/01 07:36:17;;;;;;;3.38;1.50;;;21.70;99.90;;;;;;5049392;28;20226;-77
2022/09/01 07:38:45;;;;;;;1.38;1.27;;;22.00;99.90;;;;;;5047632;28;20238;-76
2022/09/01 07:41:12;;;;;;;1.42;1.20;;;22.10;99.90;;;;;;5045754;28;20551;-76
2022/09/01 07:43:41;;;;;;;1.33;1.23;;;22.20;99.90;;;;;;5047091;28;20203;-76
2022/09/01 07:46:08;;;;;;;1.50;1.30;;;22.30;99.90;;;;;;5042487;28;21558;-77
2022/09/01 07:48:36;;;;;;;1.25;1.25;;;22.40;99.90;;;;;;5044707;28;20218;-76
2022/09/01 07:51:05;;;;;;;1.40;1.30;;;22.30;99.90;;;;;;5043251;28;20214;-76
2022/09/01 07:53:35;;;;;;;1.35;1.25;;;22.30;99.90;;;;;;5044910;28;20203;-76
2022/09/01 07:56:08;;;;;;;1.23;1.00;;;22.50;99.90;;;;;;5039595;28;20222;-76
2022/09/01 07:58:37;;;;;;;1.30;1.20;;;22.80;99.90;;;;;;5045768;28;20229;-78
2022/09/01 08:01:07;;;;;;;2.20;1.42;;;23.20;99.90;;;;;;5042965;28;20310;-77
2022/09/01 08:03:35;;;;;;;1.48;1.10;;;23.60;99.90;;;;;;5048445;28;20629;-76
2022/09/01 08:06:08;;;;;;;2.13;1.38;;;23.70;99.90;;;;;;5044775;28;20245;-76
2022/09/01 08:08:36;;;;;;;1.15;1.05;;;24.00;99.90;;;;;;5049614;28;20357;-75
2022/09/01 08:11:04;;;;;;;2.72;1.20;;;24.20;99.90;;;;;;5048712;28;20707;-78
2022/09/01 08:13:31;;;;;;;1.27;1.02;;;24.60;99.90;;;;;;5044517;28;20569;-77
2022/09/01 08:15:58;;;;;;;2.05;1.30;;;24.70;99.90;;;;;;5052137;28;20244;-76
2022/09/01 08:18:25;;;;;;;1.30;1.20;;;24.40;99.90;;;;;;5054154;28;20719;-77
2022/09/01 08:20:52;;;;;;;1.45;1.00;;;24.40;99.90;;;;;;5050051;28;20223;-77
2022/09/01 08:23:25;;;;;;;1.00;1.00;;;24.30;99.90;;;;;;5047450;28;21118;-78
2022/09/01 08:25:52;;;;;;;3.25;1.35;;;24.20;99.90;;;;;;5052201;28;20221;-75
2022/09/01 08:28:20;;;;;;;1.13;1.10;;;24.10;99.90;;;;;;5047822;28;20230;-76
2022/09/01 08:30:48;;;;;;;1.77;1.30;;;24.00;99.90;;;;;;5047558;28;20222;-77
2022/09/01 08:33:15;;;;;;;1.50;1.40;;;24.20;99.90;;;;;;5050163;28;20806;-77
2022/09/01 08:35:46;;;;;;;1.58;1.40;;;24.30;99.90;;;;;;5046890;28;20856;-75
2022/09/01 08:38:13;;;;;;;1.20;1.10;;;24.40;99.90;;;;;;5045809;28;20483;-76
2022/09/01 08:40:50;;;;;;;2.50;1.45;;;24.60;99.90;;;;;;5051308;28;20226;-77
2022/09/01 08:43:25;;;;;;;1.10;1.10;;;24.30;99.90;;;;;;5047000;28;20203;-77
2022/09/01 08:45:54;;;;;;;1.40;1.30;;;24.00;99.90;;;;;;5044873;28;20222;-77
2022/09/01 08:48:24;;;;;;;2.08;1.33;;;23.80;99.90;;;;;;5045951;28;20351;-77
2022/09/01 08:50:57;;;;;;;3.58;1.30;;;23.70;99.90;;;;;;5037010;28;21026;-78
2022/09/01 08:53:31;;;;;;;1.30;1.20;;;23.70;99.90;;;;;;5048872;28;20210;-76
2022/09/01 08:56:00;;;;;;;2.45;1.17;;;23.50;99.90;;;;;;5040922;28;20697;-76
2022/09/01 08:58:30;;;;;;;1.30;1.20;;;23.50;99.90;;;;;;5043568;28;20229;-76
2022/09/01 09:01:03;;;;;;;1.35;1.20;;;23.60;99.90;;;;;;5041555;28;20242;-76
2022/09/01 09:03:39;;;;;;;1.23;1.00;;;23.80;99.90;;;;;;5043158;28;20597;-76
2022/09/01 09:06:15;;;;;;;1.05;1.05;;;24.00;99.90;;;;;;5046847;28;20214;-76
2022/09/01 09:08:54;;;;;;;1.00;1.00;;;24.10;99.90;;;;;;5048102;28;20308;-76
2022/09/01 09:12:08;;;;;;;1.50;1.33;;;24.10;99.90;;;;;;5042957;28;20270;-76
2022/09/01 09:15:03;;;;;;;1.27;1.17;;;24.00;99.90;;;;;;5023255;28;20720;-77
2022/09/01 09:17:34;;;;;;;1.00;1.00;;;24.20;99.90;;;;;;5041075;28;20601;-77
2022/09/01 09:20:02;;;;;;;2.25;1.30;;;24.30;99.90;;;;;;5042862;28;20224;-76
2022/09/01 09:22:30;;;;;;;1.92;1.35;;;24.50;99.90;;;;;;5035853;28;20207;-77
2022/09/01 09:25:03;;;;;;;1.20;1.10;;;24.50;99.90;;;;;;5039867;28;20703;-76
2022/09/01 09:27:32;;;;;;;1.40;1.30;;;24.40;99.90;;;;;;5031559;28;20222;-78
2022/09/01 09:30:03;;;;;;;0.90;0.90;;;24.20;99.90;;;;;;5036437;28;20277;-77
2022/09/01 09:32:46;;;;;;;1.42;1.10;;;24.30;99.90;;;;;;5038242;28;20202;-78
2022/09/01 09:35:20;;;;;;;3.15;1.30;;;24.30;99.90;;;;;;5040473;28;20804;-78
2022/09/01 09:37:47;;;;;;;1.40;1.17;;;24.10;99.90;;;;;;5037114;28;20225;-75
2022/09/01 09:40:17;;;;;;;2.35;1.35;;;24.30;99.90;;;;;;5042183;28;20457;-77
2022/09/01 09:43:07;;;;;;;1.10;1.10;;;24.70;99.90;;;;;;5040935;28;20199;-74
2022/09/01 09:45:38;;;;;;;2.15;1.30;;;24.80;99.90;;;;;;5038921;28;20260;-76
2022/09/01 09:48:08;;;;;;;1.00;1.00;;;24.70;99.90;;;;;;5048788;28;20274;-75
2022/09/01 09:50:38;;;;;;;1.05;0.98;;;24.80;99.90;;;;;;5038882;28;20210;-77
2022/09/01 09:53:15;;;;;;;1.77;1.17;;;24.90;99.90;;;;;;5045122;28;20195;-76
2022/09/01 09:55:59;;;;;;;2.15;1.17;;;24.80;99.90;;;;;;5045555;28;20218;-76
2022/09/01 09:58:33;;;;;;;1.20;1.10;;;24.60;99.90;;;;;;5042433;28;20226;-77
2022/09/01 10:01:14;;;;;;;1.10;1.10;;;24.50;99.90;;;;;;5044264;28;20222;-77
2022/09/01 10:03:44;;;;;;;2.30;1.13;;;24.40;99.90;;;;;;5046741;28;20206;-77
2022/09/01 10:06:14;;;;;;;4.88;1.30;;;24.30;99.90;;;;;;5035049;28;20223;-76
2022/09/01 10:11:33;;;;;;;1.10;1.10;;;24.20;99.90;;;;;;5084162;27;20329;-74
2022/09/01 10:14:00;;;;;;;2.03;1.30;;;24.50;99.90;;;;;;5073436;28;20209;-75
2022/09/01 10:16:31;;;;;;;0.90;0.90;;;24.70;99.90;;;;;;5070156;28;20654;-75
2022/09/01 10:19:00;;;;;;;1.30;1.20;;;25.40;99.90;;;;;;5065867;28;20189;-73
2022/09/01 10:21:33;;;;;;;1.38;1.27;;;26.00;99.90;;;;;;5090313;28;20232;-74
2022/09/01 10:24:03;;;;;;;0.93;0.93;;;26.30;99.90;;;;;;5092023;28;20193;-75
2022/09/01 10:26:35;;;;;;;1.50;1.40;;;26.40;99.90;;;;;;5089439;28;20215;-73
2022/09/01 10:29:08;;;;;;;2.03;1.33;;;26.20;99.90;;;;;;5089618;28;20742;-75
2022/09/01 10:31:36;;;;;;;1.10;1.00;;;26.40;99.90;;;;;;5085817;28;20224;-75
2022/09/01 10:34:06;;;;;;;1.40;1.30;;;26.30;99.90;;;;;;5089880;28;20209;-72
2022/09/01 10:36:34;;;;;;;2.65;1.13;;;26.50;99.90;;;;;;5096887;28;20216;-76
2022/09/01 10:39:02;;;;;;;1.67;1.40;;;26.80;99.90;;;;;;5098863;28;20192;-74
2022/09/01 10:41:50;;;;;;;1.23;1.13;;;27.00;99.90;;;;;;5073413;28;20227;-74
2022/09/01 10:44:23;;;;;;;0.90;0.90;;;27.00;99.90;;;;;;5071144;28;21688;-75
2022/09/01 10:46:51;;;;;;;1.33;1.30;;;27.10;99.90;;;;;;5076372;28;20218;-76
2022/09/01 10:49:57;;;;;;;1.42;1.10;;;27.10;99.90;;;;;;5073457;28;20222;-76
2022/09/01 10:52:57;;;;;;;0.90;0.90;;;26.90;99.90;;;;;;5075988;28;20743;-73
2022/09/01 10:55:28;;;;;;;0.68;0.68;;;27.00;99.90;;;;;;5068593;28;20913;-75
2022/09/01 10:58:02;;;;;;;1.70;0.90;;;27.40;99.90;;;;;;5077514;28;20225;-74
2022/09/01 11:00:49;;;;;;;1.20;1.10;;;27.60;99.90;;;;;;5074215;28;21816;-75
2022/09/01 11:03:59;;;;;;;0.90;0.90;;;27.80;99.90;;;;;;5070679;28;20194;-75
2022/09/01 11:06:56;;;;;;;0.80;0.80;;;27.80;99.90;;;;;;5071088;28;20221;-76
2022/09/01 11:09:27;;;;;;;0.95;0.93;;;27.70;99.90;;;;;;5074175;28;20206;-75
2022/09/01 11:12:16;;;;;;;1.00;0.90;;;27.90;99.90;;;;;;5075151;28;20296;-75
2022/09/01 11:14:52;;;;;;;0.93;0.93;;;28.00;99.90;;;;;;5075704;28;20222;-74
2022/09/01 11:17:23;;;;;;;0.90;0.90;;;28.00;99.90;;;;;;5078508;28;20217;-75
2022/09/01 11:20:06;;;;;;;1.00;1.00;;;28.00;99.90;;;;;;5073884;28;20218;-76
2022/09/01 11:22:37;;;;;;;0.90;0.90;;;28.10;99.90;;;;;;5059912;28;20205;-75
2022/09/01 11:25:38;;;;;;;0.80;0.80;;;28.00;99.90;;;;;;5058445;28;20226;-75
2022/09/01 11:28:40;;;;;;;1.00;1.00;;;28.00;99.90;;;;;;5063037;28;20238;-76
2022/09/01 11:31:39;;;;;;;0.90;0.90;;;27.90;99.90;;;;;;5062286;28;20225;-75
2022/09/01 11:34:16;;;;;;;1.10;0.70;;;27.80;99.90;;;;;;5023071;28;20202;-75
2022/09/01 11:36:59;;;;;;;0.80;0.80;;;27.80;99.90;;;;;;5060977;28;20224;-75
2022/09/01 11:39:38;;;;;;;0.70;0.70;;;27.80;99.90;;;;;;5059722;28;20247;-75
2022/09/01 11:42:13;;;;;;;0.70;0.70;;;27.00;99.90;;;;;;5061917;28;20201;-75
2022/09/01 11:44:46;;;;;;;0.77;0.77;;;26.70;99.90;;;;;;5056776;28;20227;-76
2022/09/01 11:47:18;;;;;;;0.70;0.70;;;26.80;99.90;;;;;;5063227;28;20218;-76
2022/09/01 11:49:51;;;;;;;1.05;0.75;;;27.40;99.90;;;;;;5062677;28;20569;-74
2022/09/01 11:52:21;;;;;;;0.80;0.80;;;27.50;99.90;;;;;;5058872;28;20206;-75
2022/09/01 11:54:49;;;;;;;0.70;0.70;;;27.20;99.90;;;;;;5059859;28;20229;-74
2022/09/01 11:57:29;;;;;;;0.70;0.70;;;26.80;99.90;;;;;;5055142;28;20596;-75
2022/09/01 11:59:58;;;;;;;0.60;0.60;;;26.70;99.90;;;;;;5054724;28;20214;-76
2022/09/01 12:02:28;;;;;;;0.60;0.60;;;26.90;99.90;;;;;;5057388;28;20198;-76
2022/09/01 12:04:56;;;;;;;2.05;0.80;;;26.80;99.90;;;;;;5059725;28;20248;-77
2022/09/01 12:07:43;;;;;;;0.93;0.82;;;26.70;99.90;;;;;;5057876;28;20226;-74
2022/09/01 12:10:18;;;;;;;0.60;0.60;;;26.70;99.90;;;;;;5058111;28;20593;-77
2022/09/01 12:12:47;;;;;;;0.65;0.65;;;26.70;99.90;;;;;;5057864;28;20222;-76
2022/09/01 12:15:25;;;;;;;0.70;0.70;;;26.70;99.90;;;;;;5054308;28;20217;-74
2022/09/01 12:17:53;;;;;;;0.70;0.70;;;26.60;99.90;;;;;;5063736;28;22271;-75
2022/09/01 12:20:28;;;;;;;1.58;0.77;;;26.70;99.90;;;;;;5056053;28;20930;-75
2022/09/01 12:22:56;;;;;;;0.57;0.57;;;27.10;99.90;;;;;;5055576;28;21206;-75
2022/09/01 12:25:26;;;;;;;0.70;0.70;;;27.80;99.90;;;;;;5049516;28;20214;-74
2022/09/01 12:27:54;;;;;;;0.70;0.70;;;28.00;99.90;;;;;;5056718;28;20207;-75
2022/09/01 12:30:23;;;;;;;0.60;0.60;;;27.90;99.90;;;;;;5053955;28;20214;-73
2022/09/01 12:32:50;;;;;;;0.60;0.60;;;27.70;99.90;;;;;;5055281;28;20205;-75
2022/09/01 12:35:21;;;;;;;0.98;0.70;;;27.50;99.90;;;;;;5059694;28;20734;-75
2022/09/01 12:37:49;;;;;;;0.50;0.50;;;27.20;99.90;;;;;;5071177;28;20213;-75
2022/09/01 12:40:26;;;;;;;0.60;0.60;;;27.10;99.90;;;;;;5064709;28;20291;-75
2022/09/01 12:42:54;;;;;;;0.70;0.55;;;27.10;99.90;;;;;;5051320;28;20217;-75
2022/09/01 12:45:39;;;;;;;0.57;0.57;;;27.20;99.90;;;;;;5052719;28;20704;-75
2022/09/01 12:48:22;;;;;;;0.50;0.50;;;27.30;99.90;;;;;;5048525;28;20226;-74
2022/09/01 12:50:50;;;;;;;0.68;0.68;;;27.40;99.90;;;;;;5055531;28;20638;-75
2022/09/01 12:53:24;;;;;;;0.63;0.63;;;27.50;99.90;;;;;;5051786;28;20285;-76
2022/09/01 12:56:28;;;;;;;0.60;0.60;;;27.40;99.90;;;;;;5051822;28;20229;-76
2022/09/01 12:59:07;;;;;;;0.70;0.70;;;27.20;99.90;;;;;;4991731;28;20562;-75
2022/09/01 13:01:36;;;;;;;0.60;0.60;;;27.20;99.90;;;;;;5063652;22;20207;-72
2022/09/01 13:04:09;;;;;;;0.55;0.55;;;27.30;99.90;;;;;;5048991;28;20190;-73
2022/09/01 13:06:37;;;;;;;0.60;0.60;;;27.20;99.90;;;;;;5075288;28;20906;-73
2022/09/01 13:09:04;;;;;;;0.85;0.60;;;27.20;99.90;;;;;;5077497;28;20206;-73
2022/09/01 13:11:32;;;;;;;0.50;0.50;;;27.20;99.90;;;;;;5061613;28;20222;-74
2022/09/01 13:14:00;;;;;;;0.70;0.70;;;27.30;99.90;;;;;;5041154;28;20196;-73
2022/09/01 13:16:28;;;;;;;1.02;0.93;;;27.20;99.90;;;;;;5041489;28;20292;-73
2022/09/01 13:18:55;;;;;;;0.70;0.70;;;27.40;99.90;;;;;;5041952;28;20194;-73
2022/09/01 13:21:23;;;;;;;1.48;1.17;;;27.50;99.90;;;;;;5046602;28;20770;-74
2022/09/01 13:23:50;;;;;;;3.53;2.58;;;27.50;99.90;;;;;;5044661;28;20780;-73